sensor_id;sensor_type;location;lat;lon;timestamp;P1;durP1;ratioP1;P2;durP2;ratioP2
9140;SDS011;46330;50.822;7.126;2023-07-31T00:01:28;6.22;;;2.25;;
9140;SDS011;46330;50.822;7.126;2023-07-31T00:03:56;8.68;;;2.60;;
9140;SDS011;46330;50.822;7.126;2023-07-31T00:06:24;8.15;;;3.53;;
9140;SDS011;46330;50.822;7.126;2023-07-31T00:08:51;6.22;;;2.67;;
9140;SDS011;46330;50.822;7.126;2023-07-31T00:11:19;7.57;;;2.50;;
9140;SDS011;46330;50.822;7.126;2023-07-31T00:13:47;6.00;;;2.50;;
9140;SDS011;46330;50.822;7.126;2023-07-31T00:16:16;6.95;;;2.60;;
9140;SDS011;46330;50.822;7.126;2023-07-31T00:18:44;5.57;;;2.35;;
9140;SDS011;46330;50.822;7.126;2023-07-31T00:21:12;7.53;;;2.70;;
9140;SDS011;46330;50.822;7.126;2023-07-31T00:23:40;8.10;;;2.75;;
9140;SDS011;46330;50.822;7.126;2023-07-31T00:26:08;6.53;;;2.53;;
9140;SDS011;46330;50.822;7.126;2023-07-31T00:28:35;6.35;;;2.60;;
9140;SDS011;46330;50.822;7.126;2023-07-31T00:31:03;7.43;;;2.95;;
9140;SDS011;46330;50.822;7.126;2023-07-31T00:33:34;5.30;;;2.85;;
9140;SDS011;46330;50.822;7.126;2023-07-31T00:36:02;7.70;;;2.60;;
9140;SDS011;46330;50.822;7.126;2023-07-31T00:38:30;7.13;;;2.80;;
9140;SDS011;46330;50.822;7.126;2023-07-31T00:40:58;8.50;;;2.70;;
9140;SDS011;46330;50.822;7.126;2023-07-31T00:43:26;6.45;;;2.35;;
9140;SDS011;46330;50.822;7.126;2023-07-31T00:45:54;5.90;;;2.70;;
9140;SDS011;46330;50.822;7.126;2023-07-31T00:48:22;5.22;;;2.65;;
9140;SDS011;46330;50.822;7.126;2023-07-31T00:50:52;4.82;;;2.22;;
9140;SDS011;46330;50.822;7.126;2023-07-31T00:53:20;5.45;;;2.60;;
9140;SDS011;46330;50.822;7.126;2023-07-31T00:55:49;5.70;;;2.20;;
9140;SDS011;46330;50.822;7.126;2023-07-31T00:58:17;5.07;;;2.30;;
9140;SDS011;46330;50.822;7.126;2023-07-31T01:00:45;4.60;;;2.10;;
9140;SDS011;46330;50.822;7.126;2023-07-31T01:03:13;4.72;;;2.17;;
9140;SDS011;46330;50.822;7.126;2023-07-31T01:05:43;3.33;;;1.88;;
9140;SDS011;46330;50.822;7.126;2023-07-31T01:08:24;6.50;;;1.98;;
9140;SDS011;46330;50.822;7.126;2023-07-31T01:11:00;7.03;;;2.38;;
9140;SDS011;46330;50.822;7.126;2023-07-31T01:13:35;5.05;;;2.08;;
9140;SDS011;46330;50.822;7.126;2023-07-31T01:16:04;5.65;;;2.20;;
9140;SDS011;46330;50.822;7.126;2023-07-31T01:18:32;4.88;;;2.05;;
9140;SDS011;46330;50.822;7.126;2023-07-31T01:21:03;7.47;;;2.40;;
9140;SDS011;46330;50.822;7.126;2023-07-31T01:23:51;4.43;;;1.98;;
9140;SDS011;46330;50.822;7.126;2023-07-31T01:26:36;5.20;;;1.92;;
9140;SDS011;46330;50.822;7.126;2023-07-31T01:29:07;4.32;;;2.22;;
9140;SDS011;46330;50.822;7.126;2023-07-31T01:31:40;4.78;;;1.92;;
9140;SDS011;46330;50.822;7.126;2023-07-31T01:34:10;7.57;;;2.05;;
9140;SDS011;46330;50.822;7.126;2023-07-31T01:36:40;4.72;;;1.95;;
9140;SDS011;46330;50.822;7.126;2023-07-31T01:39:08;4.55;;;1.85;;
9140;SDS011;46330;50.822;7.126;2023-07-31T01:41:37;5.47;;;1.83;;
9140;SDS011;46330;50.822;7.126;2023-07-31T01:44:05;5.28;;;2.10;;
9140;SDS011;46330;50.822;7.126;2023-07-31T01:46:34;5.03;;;2.00;;
9140;SDS011;46330;50.822;7.126;2023-07-31T01:49:01;4.93;;;1.75;;
9140;SDS011;46330;50.822;7.126;2023-07-31T01:51:31;3.22;;;1.80;;
9140;SDS011;46330;50.822;7.126;2023-07-31T01:54:00;4.13;;;1.88;;
9140;SDS011;46330;50.822;7.126;2023-07-31T01:56:28;5.25;;;2.00;;
9140;SDS011;46330;50.822;7.126;2023-07-31T01:58:57;7.88;;;2.10;;
9140;SDS011;46330;50.822;7.126;2023-07-31T02:01:25;5.38;;;2.08;;
9140;SDS011;46330;50.822;7.126;2023-07-31T02:03:53;5.75;;;1.95;;
9140;SDS011;46330;50.822;7.126;2023-07-31T02:06:21;3.72;;;2.08;;
9140;SDS011;46330;50.822;7.126;2023-07-31T02:08:49;5.65;;;1.70;;
9140;SDS011;46330;50.822;7.126;2023-07-31T02:11:17;8.30;;;2.15;;
9140;SDS011;46330;50.822;7.126;2023-07-31T02:13:45;5.68;;;1.88;;
9140;SDS011;46330;50.822;7.126;2023-07-31T02:16:14;4.75;;;2.03;;
9140;SDS011;46330;50.822;7.126;2023-07-31T02:18:43;4.43;;;2.05;;
9140;SDS011;46330;50.822;7.126;2023-07-31T02:21:11;1.88;;;1.63;;
9140;SDS011;46330;50.822;7.126;2023-07-31T02:23:39;5.90;;;2.00;;
9140;SDS011;46330;50.822;7.126;2023-07-31T02:26:07;4.57;;;2.20;;
9140;SDS011;46330;50.822;7.126;2023-07-31T02:28:35;3.63;;;2.00;;
9140;SDS011;46330;50.822;7.126;2023-07-31T02:31:03;5.93;;;2.50;;
9140;SDS011;46330;50.822;7.126;2023-07-31T02:33:34;5.45;;;2.17;;
9140;SDS011;46330;50.822;7.126;2023-07-31T02:36:02;3.60;;;2.25;;
9140;SDS011;46330;50.822;7.126;2023-07-31T02:38:30;5.38;;;2.25;;
9140;SDS011;46330;50.822;7.126;2023-07-31T02:40:58;5.93;;;2.13;;
9140;SDS011;46330;50.822;7.126;2023-07-31T02:43:26;5.15;;;2.17;;
9140;SDS011;46330;50.822;7.126;2023-07-31T02:45:54;4.47;;;2.28;;
9140;SDS011;46330;50.822;7.126;2023-07-31T02:48:23;6.32;;;2.42;;
9140;SDS011;46330;50.822;7.126;2023-07-31T02:50:53;5.28;;;2.15;;
9140;SDS011;46330;50.822;7.126;2023-07-31T02:53:20;5.32;;;2.50;;
9140;SDS011;46330;50.822;7.126;2023-07-31T02:55:49;8.13;;;2.85;;
9140;SDS011;46330;50.822;7.126;2023-07-31T02:58:17;7.55;;;2.60;;
9140;SDS011;46330;50.822;7.126;2023-07-31T03:00:45;7.03;;;2.30;;
9140;SDS011;46330;50.822;7.126;2023-07-31T03:03:13;3.58;;;2.10;;
9140;SDS011;46330;50.822;7.126;2023-07-31T03:05:41;7.80;;;2.53;;
9140;SDS011;46330;50.822;7.126;2023-07-31T03:08:10;5.25;;;2.30;;
9140;SDS011;46330;50.822;7.126;2023-07-31T03:10:38;7.35;;;2.40;;
9140;SDS011;46330;50.822;7.126;2023-07-31T03:13:05;6.22;;;2.40;;
9140;SDS011;46330;50.822;7.126;2023-07-31T03:15:33;7.00;;;2.33;;
9140;SDS011;46330;50.822;7.126;2023-07-31T03:18:01;4.85;;;2.80;;
9140;SDS011;46330;50.822;7.126;2023-07-31T03:20:29;6.82;;;2.28;;
9140;SDS011;46330;50.822;7.126;2023-07-31T03:22:57;7.05;;;2.50;;
9140;SDS011;46330;50.822;7.126;2023-07-31T03:25:26;8.20;;;2.50;;
9140;SDS011;46330;50.822;7.126;2023-07-31T03:27:54;8.55;;;2.88;;
9140;SDS011;46330;50.822;7.126;2023-07-31T03:30:22;6.57;;;3.25;;
9140;SDS011;46330;50.822;7.126;2023-07-31T03:32:51;5.72;;;2.42;;
9140;SDS011;46330;50.822;7.126;2023-07-31T03:35:19;4.18;;;2.47;;
9140;SDS011;46330;50.822;7.126;2023-07-31T03:37:47;5.53;;;2.42;;
9140;SDS011;46330;50.822;7.126;2023-07-31T03:40:15;6.63;;;2.80;;
9140;SDS011;46330;50.822;7.126;2023-07-31T03:42:44;7.18;;;2.50;;
9140;SDS011;46330;50.822;7.126;2023-07-31T03:45:12;7.82;;;2.70;;
9140;SDS011;46330;50.822;7.126;2023-07-31T03:47:40;6.93;;;2.60;;
9140;SDS011;46330;50.822;7.126;2023-07-31T03:50:08;4.70;;;2.22;;
9140;SDS011;46330;50.822;7.126;2023-07-31T03:52:36;7.05;;;2.85;;
9140;SDS011;46330;50.822;7.126;2023-07-31T03:55:04;3.85;;;2.30;;
9140;SDS011;46330;50.822;7.126;2023-07-31T03:57:32;4.80;;;2.55;;
9140;SDS011;46330;50.822;7.126;2023-07-31T04:00:01;7.70;;;2.88;;
9140;SDS011;46330;50.822;7.126;2023-07-31T04:02:37;8.88;;;3.17;;
9140;SDS011;46330;50.822;7.126;2023-07-31T04:05:05;9.43;;;2.80;;
9140;SDS011;46330;50.822;7.126;2023-07-31T04:07:33;5.30;;;2.50;;
9140;SDS011;46330;50.822;7.126;2023-07-31T04:10:01;6.28;;;2.53;;
9140;SDS011;46330;50.822;7.126;2023-07-31T04:12:31;6.00;;;2.60;;
9140;SDS011;46330;50.822;7.126;2023-07-31T04:14:58;7.95;;;2.72;;
9140;SDS011;46330;50.822;7.126;2023-07-31T04:17:28;5.97;;;2.65;;
9140;SDS011;46330;50.822;7.126;2023-07-31T04:19:56;6.90;;;2.75;;
9140;SDS011;46330;50.822;7.126;2023-07-31T04:22:23;4.95;;;2.53;;
9140;SDS011;46330;50.822;7.126;2023-07-31T04:24:51;8.43;;;2.63;;
9140;SDS011;46330;50.822;7.126;2023-07-31T04:27:19;6.80;;;2.65;;
9140;SDS011;46330;50.822;7.126;2023-07-31T04:29:47;6.40;;;2.72;;
9140;SDS011;46330;50.822;7.126;2023-07-31T04:32:15;9.45;;;3.35;;
9140;SDS011;46330;50.822;7.126;2023-07-31T04:34:44;9.35;;;4.03;;
9140;SDS011;46330;50.822;7.126;2023-07-31T04:37:12;7.72;;;2.70;;
9140;SDS011;46330;50.822;7.126;2023-07-31T04:39:40;10.73;;;4.53;;
9140;SDS011;46330;50.822;7.126;2023-07-31T04:42:08;7.45;;;3.20;;
9140;SDS011;46330;50.822;7.126;2023-07-31T04:44:35;6.57;;;2.95;;
9140;SDS011;46330;50.822;7.126;2023-07-31T04:47:03;10.02;;;2.92;;
9140;SDS011;46330;50.822;7.126;2023-07-31T04:49:31;6.75;;;2.90;;
9140;SDS011;46330;50.822;7.126;2023-07-31T04:52:00;8.20;;;2.70;;
9140;SDS011;46330;50.822;7.126;2023-07-31T04:54:28;5.85;;;2.65;;
9140;SDS011;46330;50.822;7.126;2023-07-31T04:56:56;5.97;;;2.80;;
9140;SDS011;46330;50.822;7.126;2023-07-31T04:59:24;6.75;;;3.45;;
9140;SDS011;46330;50.822;7.126;2023-07-31T05:01:52;6.30;;;3.15;;
9140;SDS011;46330;50.822;7.126;2023-07-31T05:04:20;5.68;;;2.75;;
9140;SDS011;46330;50.822;7.126;2023-07-31T05:06:47;8.43;;;4.55;;
9140;SDS011;46330;50.822;7.126;2023-07-31T05:09:17;6.38;;;3.00;;
9140;SDS011;46330;50.822;7.126;2023-07-31T05:11:45;8.73;;;3.63;;
9140;SDS011;46330;50.822;7.126;2023-07-31T05:14:13;7.47;;;3.20;;
9140;SDS011;46330;50.822;7.126;2023-07-31T05:16:42;7.05;;;3.38;;
9140;SDS011;46330;50.822;7.126;2023-07-31T05:19:10;7.07;;;3.10;;
9140;SDS011;46330;50.822;7.126;2023-07-31T05:21:38;7.55;;;3.17;;
9140;SDS011;46330;50.822;7.126;2023-07-31T05:24:06;6.95;;;3.30;;
9140;SDS011;46330;50.822;7.126;2023-07-31T05:29:13;7.60;;;3.33;;
9140;SDS011;46330;50.822;7.126;2023-07-31T05:31:42;6.07;;;2.85;;
9140;SDS011;46330;50.822;7.126;2023-07-31T05:34:10;6.18;;;2.70;;
9140;SDS011;46330;50.822;7.126;2023-07-31T05:36:38;8.35;;;3.28;;
9140;SDS011;46330;50.822;7.126;2023-07-31T05:39:06;7.53;;;2.83;;
9140;SDS011;46330;50.822;7.126;2023-07-31T05:41:34;7.80;;;2.78;;
9140;SDS011;46330;50.822;7.126;2023-07-31T05:44:04;6.45;;;2.67;;
9140;SDS011;46330;50.822;7.126;2023-07-31T05:46:32;5.72;;;3.13;;
9140;SDS011;46330;50.822;7.126;2023-07-31T05:49:00;6.22;;;3.30;;
9140;SDS011;46330;50.822;7.126;2023-07-31T05:51:29;7.20;;;3.08;;
9140;SDS011;46330;50.822;7.126;2023-07-31T05:53:56;7.95;;;2.80;;
9140;SDS011;46330;50.822;7.126;2023-07-31T05:56:24;5.70;;;2.97;;
9140;SDS011;46330;50.822;7.126;2023-07-31T05:58:54;5.30;;;2.78;;
9140;SDS011;46330;50.822;7.126;2023-07-31T06:01:24;6.38;;;2.65;;
9140;SDS011;46330;50.822;7.126;2023-07-31T06:03:53;7.80;;;3.00;;
9140;SDS011;46330;50.822;7.126;2023-07-31T06:06:21;4.93;;;2.70;;
9140;SDS011;46330;50.822;7.126;2023-07-31T06:08:48;5.18;;;2.60;;
9140;SDS011;46330;50.822;7.126;2023-07-31T06:11:17;4.35;;;2.33;;
9140;SDS011;46330;50.822;7.126;2023-07-31T06:13:45;4.68;;;2.78;;
9140;SDS011;46330;50.822;7.126;2023-07-31T06:16:14;4.75;;;2.70;;
9140;SDS011;46330;50.822;7.126;2023-07-31T06:18:44;4.85;;;2.63;;
9140;SDS011;46330;50.822;7.126;2023-07-31T06:21:12;5.65;;;2.58;;
9140;SDS011;46330;50.822;7.126;2023-07-31T06:23:40;10.30;;;4.13;;
9140;SDS011;46330;50.822;7.126;2023-07-31T06:26:08;8.05;;;3.25;;
9140;SDS011;46330;50.822;7.126;2023-07-31T06:28:36;7.28;;;2.92;;
9140;SDS011;46330;50.822;7.126;2023-07-31T06:31:04;5.85;;;2.50;;
9140;SDS011;46330;50.822;7.126;2023-07-31T06:33:32;5.95;;;2.67;;
9140;SDS011;46330;50.822;7.126;2023-07-31T06:36:01;4.95;;;2.60;;
9140;SDS011;46330;50.822;7.126;2023-07-31T06:38:29;4.68;;;2.53;;
9140;SDS011;46330;50.822;7.126;2023-07-31T06:40:56;5.30;;;2.78;;
9140;SDS011;46330;50.822;7.126;2023-07-31T06:43:24;7.55;;;2.92;;
9140;SDS011;46330;50.822;7.126;2023-07-31T06:45:55;5.90;;;2.67;;
9140;SDS011;46330;50.822;7.126;2023-07-31T06:48:23;6.60;;;2.80;;
9140;SDS011;46330;50.822;7.126;2023-07-31T06:50:51;4.50;;;2.50;;
9140;SDS011;46330;50.822;7.126;2023-07-31T06:53:20;5.57;;;2.83;;
9140;SDS011;46330;50.822;7.126;2023-07-31T06:55:48;5.03;;;2.90;;
9140;SDS011;46330;50.822;7.126;2023-07-31T06:58:18;7.28;;;2.90;;
9140;SDS011;46330;50.822;7.126;2023-07-31T07:00:45;6.55;;;3.13;;
9140;SDS011;46330;50.822;7.126;2023-07-31T07:03:15;6.20;;;3.10;;
9140;SDS011;46330;50.822;7.126;2023-07-31T07:05:45;5.85;;;3.15;;
9140;SDS011;46330;50.822;7.126;2023-07-31T07:08:13;5.35;;;2.70;;
9140;SDS011;46330;50.822;7.126;2023-07-31T07:10:42;6.00;;;2.83;;
9140;SDS011;46330;50.822;7.126;2023-07-31T07:13:10;7.50;;;2.80;;
9140;SDS011;46330;50.822;7.126;2023-07-31T07:15:39;6.05;;;2.78;;
9140;SDS011;46330;50.822;7.126;2023-07-31T07:18:07;5.55;;;2.47;;
9140;SDS011;46330;50.822;7.126;2023-07-31T07:20:37;4.38;;;2.58;;
9140;SDS011;46330;50.822;7.126;2023-07-31T07:23:04;5.50;;;2.70;;
9140;SDS011;46330;50.822;7.126;2023-07-31T07:25:32;5.32;;;2.90;;
9140;SDS011;46330;50.822;7.126;2023-07-31T07:28:01;7.78;;;2.72;;
9140;SDS011;46330;50.822;7.126;2023-07-31T07:30:29;5.40;;;2.70;;
9140;SDS011;46330;50.822;7.126;2023-07-31T07:32:57;6.70;;;2.60;;
9140;SDS011;46330;50.822;7.126;2023-07-31T07:35:25;7.00;;;2.75;;
9140;SDS011;46330;50.822;7.126;2023-07-31T07:37:53;6.32;;;2.78;;
9140;SDS011;46330;50.822;7.126;2023-07-31T07:40:21;6.25;;;2.85;;
9140;SDS011;46330;50.822;7.126;2023-07-31T07:42:49;7.55;;;3.30;;
9140;SDS011;46330;50.822;7.126;2023-07-31T07:45:18;12.00;;;3.22;;
9140;SDS011;46330;50.822;7.126;2023-07-31T07:47:46;9.65;;;2.95;;
9140;SDS011;46330;50.822;7.126;2023-07-31T07:50:14;6.10;;;3.05;;
9140;SDS011;46330;50.822;7.126;2023-07-31T07:52:42;6.70;;;3.22;;
9140;SDS011;46330;50.822;7.126;2023-07-31T07:55:10;8.20;;;3.17;;
9140;SDS011;46330;50.822;7.126;2023-07-31T07:57:38;8.90;;;3.10;;
9140;SDS011;46330;50.822;7.126;2023-07-31T08:00:06;8.20;;;2.92;;
9140;SDS011;46330;50.822;7.126;2023-07-31T08:02:40;7.15;;;3.13;;
9140;SDS011;46330;50.822;7.126;2023-07-31T08:05:08;8.05;;;3.45;;
9140;SDS011;46330;50.822;7.126;2023-07-31T08:07:36;10.45;;;3.60;;
9140;SDS011;46330;50.822;7.126;2023-07-31T08:10:04;6.55;;;3.30;;
9140;SDS011;46330;50.822;7.126;2023-07-31T08:12:33;9.30;;;3.22;;
9140;SDS011;46330;50.822;7.126;2023-07-31T08:15:01;9.43;;;3.28;;
9140;SDS011;46330;50.822;7.126;2023-07-31T08:17:29;9.95;;;3.50;;
9140;SDS011;46330;50.822;7.126;2023-07-31T08:19:58;13.10;;;3.30;;
9140;SDS011;46330;50.822;7.126;2023-07-31T08:22:26;6.22;;;3.00;;
9140;SDS011;46330;50.822;7.126;2023-07-31T08:24:53;7.18;;;3.40;;
9140;SDS011;46330;50.822;7.126;2023-07-31T08:27:21;10.40;;;3.58;;
9140;SDS011;46330;50.822;7.126;2023-07-31T08:29:49;7.15;;;2.85;;
9140;SDS011;46330;50.822;7.126;2023-07-31T08:32:19;8.18;;;2.92;;
9140;SDS011;46330;50.822;7.126;2023-07-31T08:34:46;6.50;;;2.75;;
9140;SDS011;46330;50.822;7.126;2023-07-31T08:37:16;5.90;;;2.75;;
9140;SDS011;46330;50.822;7.126;2023-07-31T08:39:44;8.00;;;3.10;;
9140;SDS011;46330;50.822;7.126;2023-07-31T08:42:12;6.50;;;3.15;;
9140;SDS011;46330;50.822;7.126;2023-07-31T08:44:40;8.77;;;3.25;;
9140;SDS011;46330;50.822;7.126;2023-07-31T08:47:10;9.52;;;3.20;;
9140;SDS011;46330;50.822;7.126;2023-07-31T08:49:38;4.78;;;2.95;;
9140;SDS011;46330;50.822;7.126;2023-07-31T08:52:07;5.78;;;2.70;;
9140;SDS011;46330;50.822;7.126;2023-07-31T08:54:36;7.60;;;3.10;;
9140;SDS011;46330;50.822;7.126;2023-07-31T08:57:04;7.07;;;2.97;;
9140;SDS011;46330;50.822;7.126;2023-07-31T08:59:34;6.10;;;2.92;;
9140;SDS011;46330;50.822;7.126;2023-07-31T09:02:05;5.25;;;3.35;;
9140;SDS011;46330;50.822;7.126;2023-07-31T09:04:35;9.73;;;3.15;;
9140;SDS011;46330;50.822;7.126;2023-07-31T09:07:03;6.32;;;3.05;;
9140;SDS011;46330;50.822;7.126;2023-07-31T09:09:32;6.15;;;3.05;;
9140;SDS011;46330;50.822;7.126;2023-07-31T09:12:02;7.05;;;3.20;;
9140;SDS011;46330;50.822;7.126;2023-07-31T09:14:30;8.95;;;3.00;;
9140;SDS011;46330;50.822;7.126;2023-07-31T09:16:59;8.10;;;2.70;;
9140;SDS011;46330;50.822;7.126;2023-07-31T09:19:29;8.48;;;2.80;;
9140;SDS011;46330;50.822;7.126;2023-07-31T09:22:00;8.98;;;2.72;;
9140;SDS011;46330;50.822;7.126;2023-07-31T09:24:29;6.20;;;2.72;;
9140;SDS011;46330;50.822;7.126;2023-07-31T09:26:59;5.47;;;2.72;;
9140;SDS011;46330;50.822;7.126;2023-07-31T09:29:29;4.35;;;2.42;;
9140;SDS011;46330;50.822;7.126;2023-07-31T09:31:57;4.78;;;2.50;;
9140;SDS011;46330;50.822;7.126;2023-07-31T09:34:28;5.95;;;2.70;;
9140;SDS011;46330;50.822;7.126;2023-07-31T09:36:59;6.32;;;2.92;;
9140;SDS011;46330;50.822;7.126;2023-07-31T09:39:29;6.93;;;2.60;;
9140;SDS011;46330;50.822;7.126;2023-07-31T09:41:57;7.57;;;2.72;;
9140;SDS011;46330;50.822;7.126;2023-07-31T09:47:21;6.28;;;2.65;;
9140;SDS011;46330;50.822;7.126;2023-07-31T09:49:52;5.00;;;2.70;;
9140;SDS011;46330;50.822;7.126;2023-07-31T09:52:20;4.60;;;2.67;;
9140;SDS011;46330;50.822;7.126;2023-07-31T09:54:48;7.55;;;2.50;;
9140;SDS011;46330;50.822;7.126;2023-07-31T09:57:16;4.97;;;2.60;;
9140;SDS011;46330;50.822;7.126;2023-07-31T09:59:47;6.07;;;2.63;;
9140;SDS011;46330;50.822;7.126;2023-07-31T10:02:20;4.40;;;2.45;;
9140;SDS011;46330;50.822;7.126;2023-07-31T10:04:50;7.65;;;3.10;;
9140;SDS011;46330;50.822;7.126;2023-07-31T10:07:18;9.93;;;2.42;;
9140;SDS011;46330;50.822;7.126;2023-07-31T10:09:47;5.75;;;2.30;;
9140;SDS011;46330;50.822;7.126;2023-07-31T10:12:17;7.32;;;2.63;;
9140;SDS011;46330;50.822;7.126;2023-07-31T10:14:49;4.40;;;2.70;;
9140;SDS011;46330;50.822;7.126;2023-07-31T10:17:20;7.32;;;2.85;;
9140;SDS011;46330;50.822;7.126;2023-07-31T10:19:49;7.95;;;2.92;;
9140;SDS011;46330;50.822;7.126;2023-07-31T10:22:20;8.18;;;3.33;;
9140;SDS011;46330;50.822;7.126;2023-07-31T10:24:48;5.22;;;2.70;;
9140;SDS011;46330;50.822;7.126;2023-07-31T10:27:17;6.35;;;2.90;;
9140;SDS011;46330;50.822;7.126;2023-07-31T10:29:45;6.30;;;3.00;;
9140;SDS011;46330;50.822;7.126;2023-07-31T10:32:16;6.75;;;2.90;;
9140;SDS011;46330;50.822;7.126;2023-07-31T10:34:44;7.35;;;2.97;;
9140;SDS011;46330;50.822;7.126;2023-07-31T10:37:21;7.18;;;2.88;;
9140;SDS011;46330;50.822;7.126;2023-07-31T10:39:56;7.28;;;2.90;;
9140;SDS011;46330;50.822;7.126;2023-07-31T10:42:32;6.75;;;3.25;;
9140;SDS011;46330;50.822;7.126;2023-07-31T10:45:04;4.85;;;2.50;;
9140;SDS011;46330;50.822;7.126;2023-07-31T10:47:36;6.20;;;2.78;;
9140;SDS011;46330;50.822;7.126;2023-07-31T10:50:16;6.22;;;2.50;;
9140;SDS011;46330;50.822;7.126;2023-07-31T10:52:46;2.97;;;2.05;;
9140;SDS011;46330;50.822;7.126;2023-07-31T10:55:16;4.00;;;2.33;;
9140;SDS011;46330;50.822;7.126;2023-07-31T10:57:52;6.43;;;2.15;;
9140;SDS011;46330;50.822;7.126;2023-07-31T11:00:23;6.07;;;2.10;;
9140;SDS011;46330;50.822;7.126;2023-07-31T11:02:56;4.13;;;1.95;;
9140;SDS011;46330;50.822;7.126;2023-07-31T11:05:41;4.90;;;2.00;;
9140;SDS011;46330;50.822;7.126;2023-07-31T11:08:13;3.75;;;1.80;;
9140;SDS011;46330;50.822;7.126;2023-07-31T11:10:43;3.22;;;1.52;;
9140;SDS011;46330;50.822;7.126;2023-07-31T11:13:12;6.93;;;1.95;;
9140;SDS011;46330;50.822;7.126;2023-07-31T11:15:41;2.45;;;1.60;;
9140;SDS011;46330;50.822;7.126;2023-07-31T11:18:09;3.00;;;1.50;;
9140;SDS011;46330;50.822;7.126;2023-07-31T11:20:38;2.92;;;1.45;;
9140;SDS011;46330;50.822;7.126;2023-07-31T11:23:07;2.15;;;1.35;;
9140;SDS011;46330;50.822;7.126;2023-07-31T11:25:36;5.20;;;1.55;;
9140;SDS011;46330;50.822;7.126;2023-07-31T11:28:07;3.20;;;1.48;;
9140;SDS011;46330;50.822;7.126;2023-07-31T11:30:36;2.95;;;1.30;;
9140;SDS011;46330;50.822;7.126;2023-07-31T11:33:06;2.20;;;1.50;;
9140;SDS011;46330;50.822;7.126;2023-07-31T11:35:35;3.10;;;1.30;;
9140;SDS011;46330;50.822;7.126;2023-07-31T11:38:08;1.60;;;1.17;;
9140;SDS011;46330;50.822;7.126;2023-07-31T11:40:40;2.08;;;1.30;;
9140;SDS011;46330;50.822;7.126;2023-07-31T11:43:09;1.60;;;1.10;;
9140;SDS011;46330;50.822;7.126;2023-07-31T11:45:37;1.40;;;1.10;;
9140;SDS011;46330;50.822;7.126;2023-07-31T11:48:09;4.30;;;1.38;;
9140;SDS011;46330;50.822;7.126;2023-07-31T11:50:37;5.18;;;1.00;;
9140;SDS011;46330;50.822;7.126;2023-07-31T11:53:07;2.05;;;1.13;;
9140;SDS011;46330;50.822;7.126;2023-07-31T11:55:36;2.50;;;1.65;;
9140;SDS011;46330;50.822;7.126;2023-07-31T11:58:04;1.88;;;0.90;;
9140;SDS011;46330;50.822;7.126;2023-07-31T12:00:32;2.35;;;1.20;;
9140;SDS011;46330;50.822;7.126;2023-07-31T12:03:00;1.00;;;0.90;;
9140;SDS011;46330;50.822;7.126;2023-07-31T12:05:30;1.63;;;1.20;;
9140;SDS011;46330;50.822;7.126;2023-07-31T12:07:59;1.65;;;1.00;;
9140;SDS011;46330;50.822;7.126;2023-07-31T12:10:28;1.33;;;0.90;;
9140;SDS011;46330;50.822;7.126;2023-07-31T12:13:01;2.85;;;1.20;;
9140;SDS011;46330;50.822;7.126;2023-07-31T12:15:35;1.45;;;0.90;;
9140;SDS011;46330;50.822;7.126;2023-07-31T12:18:04;1.65;;;0.90;;
9140;SDS011;46330;50.822;7.126;2023-07-31T12:20:35;1.73;;;1.00;;
9140;SDS011;46330;50.822;7.126;2023-07-31T12:23:12;2.50;;;1.38;;
9140;SDS011;46330;50.822;7.126;2023-07-31T12:25:41;2.47;;;1.30;;
9140;SDS011;46330;50.822;7.126;2023-07-31T12:28:09;4.03;;;0.80;;
9140;SDS011;46330;50.822;7.126;2023-07-31T12:30:39;1.38;;;1.20;;
9140;SDS011;46330;50.822;7.126;2023-07-31T12:33:12;1.67;;;1.17;;
9140;SDS011;46330;50.822;7.126;2023-07-31T12:35:43;1.50;;;1.13;;
9140;SDS011;46330;50.822;7.126;2023-07-31T12:38:12;1.25;;;1.13;;
9140;SDS011;46330;50.822;7.126;2023-07-31T12:40:41;1.45;;;1.15;;
9140;SDS011;46330;50.822;7.126;2023-07-31T12:43:09;3.20;;;1.73;;
9140;SDS011;46330;50.822;7.126;2023-07-31T12:45:37;2.88;;;1.90;;
9140;SDS011;46330;50.822;7.126;2023-07-31T12:48:05;4.05;;;1.60;;
9140;SDS011;46330;50.822;7.126;2023-07-31T12:50:33;2.33;;;1.83;;
9140;SDS011;46330;50.822;7.126;2023-07-31T12:53:04;4.00;;;1.73;;
9140;SDS011;46330;50.822;7.126;2023-07-31T12:55:32;4.85;;;1.90;;
9140;SDS011;46330;50.822;7.126;2023-07-31T12:58:03;4.20;;;2.00;;
9140;SDS011;46330;50.822;7.126;2023-07-31T13:00:31;3.50;;;2.00;;
9140;SDS011;46330;50.822;7.126;2023-07-31T13:02:59;4.47;;;2.30;;
9140;SDS011;46330;50.822;7.126;2023-07-31T13:05:27;3.10;;;2.17;;
9140;SDS011;46330;50.822;7.126;2023-07-31T13:07:55;7.30;;;2.50;;
9140;SDS011;46330;50.822;7.126;2023-07-31T13:10:25;4.50;;;2.25;;
9140;SDS011;46330;50.822;7.126;2023-07-31T13:12:53;5.20;;;2.40;;
9140;SDS011;46330;50.822;7.126;2023-07-31T13:15:21;4.72;;;2.50;;
9140;SDS011;46330;50.822;7.126;2023-07-31T13:17:49;4.47;;;2.50;;
9140;SDS011;46330;50.822;7.126;2023-07-31T13:20:17;3.38;;;2.45;;
9140;SDS011;46330;50.822;7.126;2023-07-31T13:22:45;3.92;;;2.35;;
9140;SDS011;46330;50.822;7.126;2023-07-31T13:25:13;5.28;;;2.63;;
9140;SDS011;46330;50.822;7.126;2023-07-31T13:27:42;3.83;;;2.65;;
9140;SDS011;46330;50.822;7.126;2023-07-31T13:30:10;3.20;;;2.30;;
9140;SDS011;46330;50.822;7.126;2023-07-31T13:32:38;4.70;;;2.85;;
9140;SDS011;46330;50.822;7.126;2023-07-31T13:35:07;5.75;;;2.85;;
9140;SDS011;46330;50.822;7.126;2023-07-31T13:37:37;3.20;;;2.25;;
9140;SDS011;46330;50.822;7.126;2023-07-31T13:40:06;5.30;;;2.17;;
9140;SDS011;46330;50.822;7.126;2023-07-31T13:42:34;5.43;;;2.17;;
9140;SDS011;46330;50.822;7.126;2023-07-31T13:45:04;2.83;;;1.98;;
9140;SDS011;46330;50.822;7.126;2023-07-31T13:47:33;3.80;;;2.28;;
9140;SDS011;46330;50.822;7.126;2023-07-31T13:50:03;2.92;;;2.05;;
9140;SDS011;46330;50.822;7.126;2023-07-31T13:52:32;4.00;;;2.00;;
9140;SDS011;46330;50.822;7.126;2023-07-31T13:55:00;3.30;;;2.03;;
9140;SDS011;46330;50.822;7.126;2023-07-31T13:57:28;3.30;;;2.20;;
9140;SDS011;46330;50.822;7.126;2023-07-31T13:59:56;2.28;;;1.60;;
9140;SDS011;46330;50.822;7.126;2023-07-31T14:02:25;3.38;;;1.95;;
9140;SDS011;46330;50.822;7.126;2023-07-31T14:04:53;2.35;;;1.63;;
9140;SDS011;46330;50.822;7.126;2023-07-31T14:07:21;1.70;;;1.50;;
9140;SDS011;46330;50.822;7.126;2023-07-31T14:09:49;4.13;;;1.90;;
9140;SDS011;46330;50.822;7.126;2023-07-31T14:12:17;3.38;;;1.90;;
9140;SDS011;46330;50.822;7.126;2023-07-31T14:15:05;2.60;;;1.65;;
9140;SDS011;46330;50.822;7.126;2023-07-31T14:17:35;4.90;;;1.73;;
9140;SDS011;46330;50.822;7.126;2023-07-31T14:20:04;2.33;;;1.90;;
9140;SDS011;46330;50.822;7.126;2023-07-31T14:22:33;4.05;;;2.00;;
9140;SDS011;46330;50.822;7.126;2023-07-31T14:25:01;2.10;;;1.63;;
9140;SDS011;46330;50.822;7.126;2023-07-31T14:27:29;2.92;;;2.00;;
9140;SDS011;46330;50.822;7.126;2023-07-31T14:29:57;5.95;;;1.90;;
9140;SDS011;46330;50.822;7.126;2023-07-31T14:32:25;2.40;;;1.85;;
9140;SDS011;46330;50.822;7.126;2023-07-31T14:34:54;2.63;;;1.98;;
9140;SDS011;46330;50.822;7.126;2023-07-31T14:37:22;3.05;;;1.83;;
9140;SDS011;46330;50.822;7.126;2023-07-31T14:39:53;2.70;;;1.90;;
9140;SDS011;46330;50.822;7.126;2023-07-31T14:42:22;6.85;;;2.30;;
9140;SDS011;46330;50.822;7.126;2023-07-31T14:44:50;2.05;;;1.58;;
9140;SDS011;46330;50.822;7.126;2023-07-31T14:47:18;2.95;;;1.80;;
9140;SDS011;46330;50.822;7.126;2023-07-31T14:49:46;3.47;;;1.63;;
9140;SDS011;46330;50.822;7.126;2023-07-31T14:52:15;2.58;;;1.85;;
9140;SDS011;46330;50.822;7.126;2023-07-31T14:54:43;1.98;;;1.70;;
9140;SDS011;46330;50.822;7.126;2023-07-31T14:57:12;2.65;;;1.80;;
9140;SDS011;46330;50.822;7.126;2023-07-31T14:59:40;3.10;;;2.20;;
9140;SDS011;46330;50.822;7.126;2023-07-31T15:02:08;3.78;;;1.83;;
9140;SDS011;46330;50.822;7.126;2023-07-31T15:04:36;3.30;;;1.85;;
9140;SDS011;46330;50.822;7.126;2023-07-31T15:07:05;4.28;;;1.73;;
9140;SDS011;46330;50.822;7.126;2023-07-31T15:09:34;2.20;;;1.70;;
9140;SDS011;46330;50.822;7.126;2023-07-31T15:12:02;2.47;;;1.60;;
9140;SDS011;46330;50.822;7.126;2023-07-31T15:14:31;3.15;;;1.70;;
9140;SDS011;46330;50.822;7.126;2023-07-31T15:17:00;3.03;;;1.83;;